sensor_id;sensor_type;location;lat;lon;timestamp;P1;P2;P0
53698;PMS7003;68408;53.952;27.612;2024-03-02T00:04:44;29.6;23.8;16.1
53698;PMS7003;68408;53.952;27.612;2024-03-02T00:09:30;29.9;24.9;17.1
53698;PMS7003;68408;53.952;27.612;2024-03-02T00:14:38;31;25.9;18.4
53698;PMS7003;68408;53.952;27.612;2024-03-02T00:19:50;30;23.7;16.5
53698;PMS7003;68408;53.952;27.612;2024-03-02T00:24:42;31.8;25.7;18.3
53698;PMS7003;68408;53.952;27.612;2024-03-02T00:29:34;31;26.6;18.9
53698;PMS7003;68408;53.952;27.612;2024-03-02T00:34:52;29.7;24.9;17.2
53698;PMS7003;68408;53.952;27.612;2024-03-02T00:39:50;35.5;28.1;19.3
53698;PMS7003;68408;53.952;27.612;2024-03-02T00:44:42;36;28.3;19.6
53698;PMS7003;68408;53.952;27.612;2024-03-02T00:49:24;32.2;26.9;18.9
53698;PMS7003;68408;53.952;27.612;2024-03-02T00:54:19;34;28.1;19.4
53698;PMS7003;68408;53.952;27.612;2024-03-02T00:59:24;33.2;28;19.8
53698;PMS7003;68408;53.952;27.612;2024-03-02T01:04:24;33.1;27.2;19.1
53698;PMS7003;68408;53.952;27.612;2024-03-02T01:09:24;30.8;25.8;18.3
53698;PMS7003;68408;53.952;27.612;2024-03-02T01:14:24;34.6;29.4;21
53698;PMS7003;68408;53.952;27.612;2024-03-02T01:19:38;35.8;29.3;20.2
53698;PMS7003;68408;53.952;27.612;2024-03-02T01:24:30;36.1;29.9;20.6
53698;PMS7003;68408;53.952;27.612;2024-03-02T01:29:50;33.5;28.5;19.5
53698;PMS7003;68408;53.952;27.612;2024-03-02T01:34:42;35.4;28.7;20.2
53698;PMS7003;68408;53.952;27.612;2024-03-02T01:39:38;37.8;29.7;20.8
53698;PMS7003;68408;53.952;27.612;2024-03-02T01:44:18;35.5;29.3;19.7
53698;PMS7003;68408;53.952;27.612;2024-03-02T01:49:38;37.8;30;20.3
53698;PMS7003;68408;53.952;27.612;2024-03-02T01:54:42;34.7;29.3;20.6
53698;PMS7003;68408;53.952;27.612;2024-03-02T01:59:30;37.4;30.6;20.9
53698;PMS7003;68408;53.952;27.612;2024-03-02T02:04:28;36.8;28.1;19.1
53698;PMS7003;68408;53.952;27.612;2024-03-02T02:09:42;36.7;29.4;20.6
53698;PMS7003;68408;53.952;27.612;2024-03-02T02:14:38;38.1;31.6;21.2
53698;PMS7003;68408;53.952;27.612;2024-03-02T02:19:32;36.4;29.7;20.9
53698;PMS7003;68408;53.952;27.612;2024-03-02T02:24:42;39.8;31.6;21.7
53698;PMS7003;68408;53.952;27.612;2024-03-02T02:29:24;38.5;30.7;21
53698;PMS7003;68408;53.952;27.612;2024-03-02T02:34:24;33.5;27;18
53698;PMS7003;68408;53.952;27.612;2024-03-02T02:39:32;35.7;27.5;19.4
53698;PMS7003;68408;53.952;27.612;2024-03-02T02:44:18;39;30.8;22.2
53698;PMS7003;68408;53.952;27.612;2024-03-02T02:49:42;35.8;28.7;21.1
53698;PMS7003;68408;53.952;27.612;2024-03-02T02:54:38;35.7;29.9;21
53698;PMS7003;68408;53.952;27.612;2024-03-02T02:59:24;36.7;28.9;20.2
53698;PMS7003;68408;53.952;27.612;2024-03-02T03:04:32;34.3;27.1;19.5
53698;PMS7003;68408;53.952;27.612;2024-03-02T03:09:42;33.4;27.1;19.6
53698;PMS7003;68408;53.952;27.612;2024-03-02T03:14:35;36.3;29.2;20.1
53698;PMS7003;68408;53.952;27.612;2024-03-02T03:19:30;32.8;27.4;19.3
53698;PMS7003;68408;53.952;27.612;2024-03-02T03:24:20;33.6;26.3;18.3
53698;PMS7003;68408;53.952;27.612;2024-03-02T03:29:42;29.8;24.9;17.4
53698;PMS7003;68408;53.952;27.612;2024-03-02T03:34:18;32.5;26.4;19.1
53698;PMS7003;68408;53.952;27.612;2024-03-02T03:39:18;31.8;26;18.4
53698;PMS7003;68408;53.952;27.612;2024-03-02T03:44:42;34.2;28.7;19.7
53698;PMS7003;68408;53.952;27.612;2024-03-02T03:49:44;29.4;24.6;17
53698;PMS7003;68408;53.952;27.612;2024-03-02T03:54:27;32.1;26.1;17.1
53698;PMS7003;68408;53.952;27.612;2024-03-02T03:59:43;30.8;25.7;18.7
53698;PMS7003;68408;53.952;27.612;2024-03-02T04:04:18;33.7;27.3;19.5
53698;PMS7003;68408;53.952;27.612;2024-03-02T04:09:24;33.7;26.9;19.1
53698;PMS7003;68408;53.952;27.612;2024-03-02T04:14:34;31.2;25;18.3
53698;PMS7003;68408;53.952;27.612;2024-03-02T04:19:18;31.5;24.8;19
53698;PMS7003;68408;53.952;27.612;2024-03-02T04:24:24;25.5;20.6;13
53698;PMS7003;68408;53.952;27.612;2024-03-02T04:29:50;32.4;26.4;19.1
53698;PMS7003;68408;53.952;27.612;2024-03-02T04:34:36;33.6;26.7;18.7
53698;PMS7003;68408;53.952;27.612;2024-03-02T04:39:44;31.5;26.3;18.7
53698;PMS7003;68408;53.952;27.612;2024-03-02T04:44:50;30.8;25.6;18.5
53698;PMS7003;68408;53.952;27.612;2024-03-02T04:49:24;33.2;28.2;19.9
53698;PMS7003;68408;53.952;27.612;2024-03-02T04:54:52;34;28.4;19.9
53698;PMS7003;68408;53.952;27.612;2024-03-02T04:59:51;31.6;26.3;18.4
53698;PMS7003;68408;53.952;27.612;2024-03-02T05:04:42;30.3;23.7;16.7
53698;PMS7003;68408;53.952;27.612;2024-03-02T05:09:31;32.2;26.7;19.2
53698;PMS7003;68408;53.952;27.612;2024-03-02T05:14:38;30.2;24.4;18
53698;PMS7003;68408;53.952;27.612;2024-03-02T05:19:42;31.3;26.2;19
53698;PMS7003;68408;53.952;27.612;2024-03-02T05:24:51;27.9;23.1;15.8
53698;PMS7003;68408;53.952;27.612;2024-03-02T05:29:34;32;25.8;18.3
53698;PMS7003;68408;53.952;27.612;2024-03-02T05:34:51;33.9;27.8;19.2
53698;PMS7003;68408;53.952;27.612;2024-03-02T05:39:19;31;25.6;18.6
53698;PMS7003;68408;53.952;27.612;2024-03-02T05:44:25;32.3;26.9;18.5
53698;PMS7003;68408;53.952;27.612;2024-03-02T05:49:25;32.5;26.5;18.8
53698;PMS7003;68408;53.952;27.612;2024-03-02T05:54:19;33.1;27.4;18.9
53698;PMS7003;68408;53.952;27.612;2024-03-02T05:59:29;32.8;26.7;18.5
53698;PMS7003;68408;53.952;27.612;2024-03-02T06:04:27;34.2;26.7;18.7
53698;PMS7003;68408;53.952;27.612;2024-03-02T06:09:21;31.2;24.6;17.5
53698;PMS7003;68408;53.952;27.612;2024-03-02T06:14:19;33.3;27.6;19
53698;PMS7003;68408;53.952;27.612;2024-03-02T06:19:51;32.2;27.4;19.5
53698;PMS7003;68408;53.952;27.612;2024-03-02T06:24:25;36.2;28.6;20.3
53698;PMS7003;68408;53.952;27.612;2024-03-02T06:29:41;32.2;27.5;18.9
53698;PMS7003;68408;53.952;27.612;2024-03-02T06:34:27;34.8;28.8;20.4
53698;PMS7003;68408;53.952;27.612;2024-03-02T06:39:45;35.2;29.1;20.9
53698;PMS7003;68408;53.952;27.612;2024-03-02T06:44:25;34.6;29;20.3
53698;PMS7003;68408;53.952;27.612;2024-03-02T06:49:53;34.7;28.9;19.9
53698;PMS7003;68408;53.952;27.612;2024-03-02T06:54:33;34.7;27.6;19.2
53698;PMS7003;68408;53.952;27.612;2024-03-02T06:59:53;32.1;24.8;16.7
53698;PMS7003;68408;53.952;27.612;2024-03-02T07:04:27;33;28.6;19.9
53698;PMS7003;68408;53.952;27.612;2024-03-02T07:09:51;30.4;26.1;18.9
53698;PMS7003;68408;53.952;27.612;2024-03-02T07:14:37;33.2;27;19.2
53698;PMS7003;68408;53.952;27.612;2024-03-02T07:19:19;33.8;26.4;17.8
53698;PMS7003;68408;53.952;27.612;2024-03-02T07:24:27;36.8;29.6;21.9
53698;PMS7003;68408;53.952;27.612;2024-03-02T07:29:19;34.4;28.4;19.8
53698;PMS7003;68408;53.952;27.612;2024-03-02T07:34:19;33.7;28.5;20.8
53698;PMS7003;68408;53.952;27.612;2024-03-02T07:39:27;32.9;27.5;19.3
53698;PMS7003;68408;53.952;27.612;2024-03-02T07:44:43;34.5;29.6;21.1
53698;PMS7003;68408;53.952;27.612;2024-03-02T07:49:33;34.2;27.4;19.5
53698;PMS7003;68408;53.952;27.612;2024-03-02T07:54:53;36.4;29.2;20.8
53698;PMS7003;68408;53.952;27.612;2024-03-02T07:59:33;36.1;29.9;21.7
53698;PMS7003;68408;53.952;27.612;2024-03-02T08:04:53;38.8;31.5;21.6
53698;PMS7003;68408;53.952;27.612;2024-03-02T08:09:33;38.9;30.8;21.3
53698;PMS7003;68408;53.952;27.612;2024-03-02T08:14:45;36.4;30.3;21.1
53698;PMS7003;68408;53.952;27.612;2024-03-02T08:19:33;34.2;28.7;20
53698;PMS7003;68408;53.952;27.612;2024-03-02T08:24:41;37.4;30.5;20.7
53698;PMS7003;68408;53.952;27.612;2024-03-02T08:29:53;34.7;29.9;21.7
53698;PMS7003;68408;53.952;27.612;2024-03-02T08:34:45;34.6;28.7;20.3
53698;PMS7003;68408;53.952;27.612;2024-03-02T08:39:19;35.6;29.9;20.9
53698;PMS7003;68408;53.952;27.612;2024-03-02T08:44:53;34.2;28;19.4
53698;PMS7003;68408;53.952;27.612;2024-03-02T08:49:53;33.9;27.6;20.1
53698;PMS7003;68408;53.952;27.612;2024-03-02T08:54:43;33.8;27.5;18.9
53698;PMS7003;68408;53.952;27.612;2024-03-02T08:59:51;33.3;27.8;20.4
53698;PMS7003;68408;53.952;27.612;2024-03-02T09:04:31;38;29.8;20.5
53698;PMS7003;68408;53.952;27.612;2024-03-02T09:09:31;33;26.9;18.8
53698;PMS7003;68408;53.952;27.612;2024-03-02T09:14:19;36.5;29;21.1
53698;PMS7003;68408;53.952;27.612;2024-03-02T09:19:19;33.8;28.7;20.6
53698;PMS7003;68408;53.952;27.612;2024-03-02T09:24:31;35;29.9;21.2
53698;PMS7003;68408;53.952;27.612;2024-03-02T09:29:41;32.7;27.7;19.8
53698;PMS7003;68408;53.952;27.612;2024-03-02T09:34:31;35.7;29.7;20.4
53698;PMS7003;68408;53.952;27.612;2024-03-02T09:39:53;34.4;28.8;20.8
53698;PMS7003;68408;53.952;27.612;2024-03-02T09:44:43;33;27.1;19.8
53698;PMS7003;68408;53.952;27.612;2024-03-02T09:49:53;35.4;30.9;21.7
53698;PMS7003;68408;53.952;27.612;2024-03-02T09:54:19;35.4;30.5;20.9
53698;PMS7003;68408;53.952;27.612;2024-03-02T09:59:21;34.3;28.8;20.2
53698;PMS7003;68408;53.952;27.612;2024-03-02T10:04:37;32.3;25.2;17.6
53698;PMS7003;68408;53.952;27.612;2024-03-02T10:09:26;35.4;28.7;20.3
53698;PMS7003;68408;53.952;27.612;2024-03-02T10:14:35;34.6;28.2;19.5
53698;PMS7003;68408;53.952;27.612;2024-03-02T10:19:43;31.9;28.1;19.8
53698;PMS7003;68408;53.952;27.612;2024-03-02T10:24:53;35.3;28.3;19.7
53698;PMS7003;68408;53.952;27.612;2024-03-02T10:29:36;35;29.6;20.8
53698;PMS7003;68408;53.952;27.612;2024-03-02T10:34:45;36.2;28.8;20.4
53698;PMS7003;68408;53.952;27.612;2024-03-02T10:39:31;35.1;28.6;19.9
53698;PMS7003;68408;53.952;27.612;2024-03-02T10:44:53;30.6;26;19.1
53698;PMS7003;68408;53.952;27.612;2024-03-02T10:49:19;33.9;28.3;20.3
53698;PMS7003;68408;53.952;27.612;2024-03-02T10:54:19;29.5;26.1;19.2
53698;PMS7003;68408;53.952;27.612;2024-03-02T10:59:46;33.4;27.9;19.5
53698;PMS7003;68408;53.952;27.612;2024-03-02T11:04:54;30.8;26.9;19.7
53698;PMS7003;68408;53.952;27.612;2024-03-02T11:09:45;33;25.8;18.4
53698;PMS7003;68408;53.952;27.612;2024-03-02T11:14:53;29.3;25;18.7
53698;PMS7003;68408;53.952;27.612;2024-03-02T11:19:43;27.5;23.5;17.9
53698;PMS7003;68408;53.952;27.612;2024-03-02T11:24:47;31.7;26.8;19.4
53698;PMS7003;68408;53.952;27.612;2024-03-02T11:29:42;33.2;26.9;19.6
53698;PMS7003;68408;53.952;27.612;2024-03-02T11:34:41;28.8;24.7;18.2
53698;PMS7003;68408;53.952;27.612;2024-03-02T11:39:43;30.3;26.4;18.5
53698;PMS7003;68408;53.952;27.612;2024-03-02T11:44:19;29.2;25.6;18.1
53698;PMS7003;68408;53.952;27.612;2024-03-02T11:49:36;29.7;24.9;18.1
53698;PMS7003;68408;53.952;27.612;2024-03-02T11:54:41;27.5;23.8;17.6
53698;PMS7003;68408;53.952;27.612;2024-03-02T11:59:49;24.8;21.3;15.7
53698;PMS7003;68408;53.952;27.612;2024-03-02T12:04:35;26.9;22.7;17.1
53698;PMS7003;68408;53.952;27.612;2024-03-02T12:09:43;27.2;23.3;17.4
53698;PMS7003;68408;53.952;27.612;2024-03-02T12:14:19;27.7;23.7;16.9
53698;PMS7003;68408;53.952;27.612;2024-03-02T12:19:25;30.3;26.2;18.9
53698;PMS7003;68408;53.952;27.612;2024-03-02T12:24:26;29;24.2;18.4
53698;PMS7003;68408;53.952;27.612;2024-03-02T12:29:25;29.4;25.3;18.4
53698;PMS7003;68408;53.952;27.612;2024-03-02T12:34:19;30.8;25.6;18.4
53698;PMS7003;68408;53.952;27.612;2024-03-02T12:39:49;27.2;23.8;16.4
53698;PMS7003;68408;53.952;27.612;2024-03-02T12:44:41;29.7;24.3;17.2
53698;PMS7003;68408;53.952;27.612;2024-03-02T12:49:49;30.3;26.3;18.8
53698;PMS7003;68408;53.952;27.612;2024-03-02T12:54:45;29.1;25.5;19
53698;PMS7003;68408;53.952;27.612;2024-03-02T12:59:37;31.6;26.1;19.2
53698;PMS7003;68408;53.952;27.612;2024-03-02T13:04:52;27.7;23.8;17.9
53698;PMS7003;68408;53.952;27.612;2024-03-02T13:09:51;32.2;27.2;19.7
53698;PMS7003;68408;53.952;27.612;2024-03-02T13:14:47;32.5;28.1;20.6
53698;PMS7003;68408;53.952;27.612;2024-03-02T13:19:33;27.2;23.3;15.9
53698;PMS7003;68408;53.952;27.612;2024-03-02T13:24:39;32.2;26.5;18.9
53698;PMS7003;68408;53.952;27.612;2024-03-02T13:29:41;28.7;24.8;18.4
53698;PMS7003;68408;53.952;27.612;2024-03-02T13:34:51;29.6;25.3;18.7
53698;PMS7003;68408;53.952;27.612;2024-03-02T13:39:35;26.2;22.4;16.7
53698;PMS7003;68408;53.952;27.612;2024-03-02T13:44:51;26.9;22.2;15.8
53698;PMS7003;68408;53.952;27.612;2024-03-02T13:49:21;27.3;23.6;18.1
53698;PMS7003;68408;53.952;27.612;2024-03-02T13:54:19;27.5;22.5;17.4
53698;PMS7003;68408;53.952;27.612;2024-03-02T13:59:25;28.9;23.8;17.4
53698;PMS7003;68408;53.952;27.612;2024-03-02T14:04:41;28.7;24.1;17.5
53698;PMS7003;68408;53.952;27.612;2024-03-02T14:09:19;28.7;24.9;18.2
53698;PMS7003;68408;53.952;27.612;2024-03-02T14:14:21;28.5;23.8;17.4
53698;PMS7003;68408;53.952;27.612;2024-03-02T14:19:21;27.8;23.7;17.2
53698;PMS7003;68408;53.952;27.612;2024-03-02T14:24:19;29.8;24.1;18
53698;PMS7003;68408;53.952;27.612;2024-03-02T14:29:49;28;22.7;17.1
53698;PMS7003;68408;53.952;27.612;2024-03-02T14:34:29;27.4;22.9;17.3
53698;PMS7003;68408;53.952;27.612;2024-03-02T14:39:49;27.4;23.2;16.7
53698;PMS7003;68408;53.952;27.612;2024-03-02T14:44:19;25.2;21.5;16
53698;PMS7003;68408;53.952;27.612;2024-03-02T14:49:43;21.6;18;13.8
53698;PMS7003;68408;53.952;27.612;2024-03-02T14:54:25;26.6;21.8;15.9
53698;PMS7003;68408;53.952;27.612;2024-03-02T14:59:43;23.9;20.7;15.9
53698;PMS7003;68408;53.952;27.612;2024-03-02T15:04:49;25.9;21.2;15.4
53698;PMS7003;68408;53.952;27.612;2024-03-02T15:09:43;24.7;20.9;16
53698;PMS7003;68408;53.952;27.612;2024-03-02T15:14:35;25.6;20.9;15.9
53698;PMS7003;68408;53.952;27.612;2024-03-02T15:19:49;22.8;20.4;14.9
53698;PMS7003;68408;53.952;27.612;2024-03-02T15:24:49;21.7;17.4;12.7
53698;PMS7003;68408;53.952;27.612;2024-03-02T15:29:41;22.7;18.9;13.5
53698;PMS7003;68408;53.952;27.612;2024-03-02T15:34:29;22.2;17.8;13.2
53698;PMS7003;68408;53.952;27.612;2024-03-02T15:39:27;23.8;20.2;15.2
53698;PMS7003;68408;53.952;27.612;2024-03-02T15:44:31;23.3;19.4;14.6
53698;PMS7003;68408;53.952;27.612;2024-03-02T15:49:19;23.2;19;14.3
53698;PMS7003;68408;53.952;27.612;2024-03-02T15:54:41;23.3;19.9;14.6
53698;PMS7003;68408;53.952;27.612;2024-03-02T15:59:29;25.2;20.7;15.6
53698;PMS7003;68408;53.952;27.612;2024-03-02T16:04:50;23.4;20;14.7
53698;PMS7003;68408;53.952;27.612;2024-03-02T16:09:25;22.2;18.7;13.7
53698;PMS7003;68408;53.952;27.612;2024-03-02T16:14:49;26.3;21.8;15.6
53698;PMS7003;68408;53.952;27.612;2024-03-02T16:19:49;25.2;20.5;15.4
53698;PMS7003;68408;53.952;27.612;2024-03-02T16:24:43;24.4;20.2;14.7
53698;PMS7003;68408;53.952;27.612;2024-03-02T16:29:31;22.7;20;15.1
53698;PMS7003;68408;53.952;27.612;2024-03-02T16:34:49;23.6;20.5;15.3
53698;PMS7003;68408;53.952;27.612;2024-03-02T16:39:49;24.6;21.2;15.2
53698;PMS7003;68408;53.952;27.612;2024-03-02T16:44:43;24.2;20.8;15.7
53698;PMS7003;68408;53.952;27.612;2024-03-02T16:49:29;22.8;19.2;14.2
53698;PMS7003;68408;53.952;27.612;2024-03-02T16:54:49;21.9;18.3;13.7
53698;PMS7003;68408;53.952;27.612;2024-03-02T16:59:43;21.9;18.4;13.8
53698;PMS7003;68408;53.952;27.612;2024-03-02T17:04:41;21;17.9;13.8
53698;PMS7003;68408;53.952;27.612;2024-03-02T17:09:43;21.1;18.3;14
53698;PMS7003;68408;53.952;27.612;2024-03-02T17:14:19;22.2;17.6;13.5
53698;PMS7003;68408;53.952;27.612;2024-03-02T17:19:19;22.3;18.7;13.7
53698;PMS7003;68408;53.952;27.612;2024-03-02T17:24:19;22.3;18.4;13.9
53698;PMS7003;68408;53.952;27.612;2024-03-02T17:29:19;21.8;18.6;14.4
53698;PMS7003;68408;53.952;27.612;2024-03-02T17:34:29;19.3;15.8;12
53698;PMS7003;68408;53.952;27.612;2024-03-02T17:39:35;19.3;15.6;12.2
53698;PMS7003;68408;53.952;27.612;2024-03-02T17:44:29;18.4;15.8;12.5
53698;PMS7003;68408;53.952;27.612;2024-03-02T17:49:47;17.4;15.9;11.9
53698;PMS7003;68408;53.952;27.612;2024-03-02T17:54:45;18.8;16.5;12.3
53698;PMS7003;68408;53.952;27.612;2024-03-02T17:59:43;20.7;16.9;13.2
53698;PMS7003;68408;53.952;27.612;2024-03-02T18:04:33;19.6;16.8;13.1
53698;PMS7003;68408;53.952;27.612;2024-03-02T18:09:43;21.1;17.1;12.7
53698;PMS7003;68408;53.952;27.612;2024-03-02T18:14:45;19.3;15.3;11.5
53698;PMS7003;68408;53.952;27.612;2024-03-02T18:19:33;18.8;16;11.8
53698;PMS7003;68408;53.952;27.612;2024-03-02T18:24:19;23.3;19.9;15.3
53698;PMS7003;68408;53.952;27.612;2024-03-02T18:29:45;25.6;20.2;14.5
53698;PMS7003;68408;53.952;27.612;2024-03-02T18:34:53;22;18.7;14.5
53698;PMS7003;68408;53.952;27.612;2024-03-02T18:39:37;22.8;18.1;13.1
53698;PMS7003;68408;53.952;27.612;2024-03-02T18:44:45;23.3;19.7;14.4
53698;PMS7003;68408;53.952;27.612;2024-03-02T18:49:20;22.1;18.9;14.3
53698;PMS7003;68408;53.952;27.612;2024-03-02T18:54:25;21.8;18.4;13.9
53698;PMS7003;68408;53.952;27.612;2024-03-02T18:59:25;21;18.2;13.9
53698;PMS7003;68408;53.952;27.612;2024-03-02T19:04:19;21.5;17;12.3
53698;PMS7003;68408;53.952;27.612;2024-03-02T19:09:37;20.6;17.8;13.1
53698;PMS7003;68408;53.952;27.612;2024-03-02T19:14:55;20.3;16.8;12.8
53698;PMS7003;68408;53.952;27.612;2024-03-02T19:19:47;19.3;16.8;12.6
53698;PMS7003;68408;53.952;27.612;2024-03-02T19:24:55;19.8;15.7;12.3
53698;PMS7003;68408;53.952;27.612;2024-03-02T19:29:55;20.5;16.7;12.8
53698;PMS7003;68408;53.952;27.612;2024-03-02T19:34:47;19.1;15.9;12.1
53698;PMS7003;68408;53.952;27.612;2024-03-02T19:39:58;19.5;16.5;11.6
53698;PMS7003;68408;53.952;27.612;2024-03-02T19:44:57;20.7;16;12.1
53698;PMS7003;68408;53.952;27.612;2024-03-02T19:49:47;20.8;16.8;11.5
53698;PMS7003;68408;53.952;27.612;2024-03-02T19:54:25;19.3;15.8;12.5
53698;PMS7003;68408;53.952;27.612;2024-03-02T19:59:43;19.2;15.7;11.9
53698;PMS7003;68408;53.952;27.612;2024-03-02T20:04:47;17.9;15.1;11.5
53698;PMS7003;68408;53.952;27.612;2024-03-02T20:09:57;24.5;19.9;14.8
53698;PMS7003;68408;53.952;27.612;2024-03-02T20:14:37;22.5;17.8;13.1
53698;PMS7003;68408;53.952;27.612;2024-03-02T20:19:47;19.7;16.3;11.7
53698;PMS7003;68408;53.952;27.612;2024-03-02T20:24:32;20.5;16.4;12.3
53698;PMS7003;68408;53.952;27.612;2024-03-02T20:29:25;19.2;16.6;12
53698;PMS7003;68408;53.952;27.612;2024-03-02T20:34:31;17.6;15.3;11.5
53698;PMS7003;68408;53.952;27.612;2024-03-02T20:39:19;16.7;13.7;10.4
53698;PMS7003;68408;53.952;27.612;2024-03-02T20:44:47;18.2;14.8;11.2
53698;PMS7003;68408;53.952;27.612;2024-03-02T20:49:57;18.9;15.7;12.1
53698;PMS7003;68408;53.952;27.612;2024-03-02T20:54:29;16.3;13.6;10.7
53698;PMS7003;68408;53.952;27.612;2024-03-02T20:59:33;16.5;13.8;11
53698;PMS7003;68408;53.952;27.612;2024-03-02T21:04:57;16.7;14.1;10.1
53698;PMS7003;68408;53.952;27.612;2024-03-02T21:09:19;16.4;13.7;10.6
53698;PMS7003;68408;53.952;27.612;2024-03-02T21:14:57;16;12.5;9.5
53698;PMS7003;68408;53.952;27.612;2024-03-02T21:19:19;16.9;13.5;10.5
53698;PMS7003;68408;53.952;27.612;2024-03-02T21:24:47;16.9;14.5;10.9
53698;PMS7003;68408;53.952;27.612;2024-03-02T21:29:33;17.7;14.6;10.9
53698;PMS7003;68408;53.952;27.612;2024-03-02T21:34:21;15;11.5;8.6
53698;PMS7003;68408;53.952;27.612;2024-03-02T21:39:57;15.7;12.5;9.8
53698;PMS7003;68408;53.952;27.612;2024-03-02T21:44:57;14.5;11.3;8.4
53698;PMS7003;68408;53.952;27.612;2024-03-02T21:49:37;16;13.2;9.8
53698;PMS7003;68408;53.952;27.612;2024-03-02T21:54:57;14.2;11.2;8.6
53698;PMS7003;68408;53.952;27.612;2024-03-02T21:59:57;15.5;12.7;9.9
53698;PMS7003;68408;53.952;27.612;2024-03-02T22:04:21;15.2;12.6;9.5
53698;PMS7003;68408;53.952;27.612;2024-03-02T22:09:25;15.9;13.3;10.1
53698;PMS7003;68408;53.952;27.612;2024-03-02T22:14:27;15.6;12.4;9
53698;PMS7003;68408;53.952;27.612;2024-03-02T22:19:57;14.9;12.3;9.3
53698;PMS7003;68408;53.952;27.612;2024-03-02T22:24:57;14.3;12;9.5
53698;PMS7003;68408;53.952;27.612;2024-03-02T22:29:33;14.3;11.9;8.7
53698;PMS7003;68408;53.952;27.612;2024-03-02T22:34:33;15.4;12.3;9.6
53698;PMS7003;68408;53.952;27.612;2024-03-02T22:39:43;15.6;12.3;9.2
53698;PMS7003;68408;53.952;27.612;2024-03-02T22:44:33;16.5;12.3;9.2
53698;PMS7003;68408;53.952;27.612;2024-03-02T22:49:57;13.5;10.9;8.2
53698;PMS7003;68408;53.952;27.612;2024-03-02T22:54:47;14.9;12.3;9.3
53698;PMS7003;68408;53.952;27.612;2024-03-02T22:59:43;15.2;12.1;9.2
53698;PMS7003;68408;53.952;27.612;2024-03-02T23:04:31;13.3;11.1;8.4
53698;PMS7003;68408;53.952;27.612;2024-03-02T23:09:35;13.5;11.6;9.1
53698;PMS7003;68408;53.952;27.612;2024-03-02T23:14:45;14.6;11.8;9.2
53698;PMS7003;68408;53.952;27.612;2024-03-02T23:19:31;13.5;10.4;8
53698;PMS7003;68408;53.952;27.612;2024-03-02T23:24:25;12;8.9;6.9
53698;PMS7003;68408;53.952;27.612;2024-03-02T23:29:49;14.2;9.7;7.9
53698;PMS7003;68408;53.952;27.612;2024-03-02T23:34:55;15;11.9;8.9
53698;PMS7003;68408;53.952;27.612;2024-03-02T23:39:31;14.8;11.7;9
53698;PMS7003;68408;53.952;27.612;2024-03-02T23:44:45;14.6;12.1;8.9
53698;PMS7003;68408;53.952;27.612;2024-03-02T23:49:20;12.8;10.8;8.1
53698;PMS7003;68408;53.952;27.612;2024-03-02T23:54:25;13;11.1;8.2
53698;PMS7003;68408;53.952;27.612;2024-03-02T23:59:37;13.9;11.7;8.7
